Adair, IL

2:05 AM CDT on August 24, 2016 (GMT -0500)
ARS W9PFD | | Change Station

Elev 650 ft 40.42 °N, 90.46 °W | Updated 47 seconds ago

Overcast
Overcast
71.3 °F
Feels Like 71.3 °F
N
6.0
Wind Variable Wind from South
Gusts 6.0 mph

Today
High -- | Low -- °F
--% Chance of Precip.
Yesterday
High -- | Low -- °F
Precip. -- in
Pressure 30.03 in
Visibility 7.0 miles
Clouds Mostly Cloudy 800 ft
Mostly Cloudy 7500 ft
Overcast 11000 ft
Dew Point 70 °F
Humidity 95%
Rainfall 0.00 in
Snow Depth Not available.
6:21 AM 7:45 PM
Waning Gibbous, 60% visible
METAR KMQB 240655Z AUTO 17007G15KT 7SM BKN008 BKN075 OVC110 21/21 A3003 RMK AO2 T02110205
Pressure 30.03 in
Visibility 7.0 miles
Clouds Mostly Cloudy 800 ft
Mostly Cloudy 7500 ft
Overcast 11000 ft
Dew Point 70 °F
Humidity 95%
Rainfall 0.00 in
Snow Depth Not available.
6:21 AM 7:45 PM
Waning Gibbous, 60% visible
METAR KMQB 240655Z AUTO 17007G15KT 7SM BKN008 BKN075 OVC110 21/21 A3003 RMK AO2 T02110205

10-Day Weather Forecast

Almanac

Astronomy

Aug. 24, 2016 Rise Set
Actual Time
Civil Twilight
Nautical Twilight
Astronomical Twilight
Moon
Length of Visible Light
Length of Day
Tomorrow will be .
, % of the Moon is Illuminated

Today's Extremes

State Highs State Lows

Community

WunderPhotos

Upload Photos

1,934,555 photos uploaded!

WunderBlog® & News

Nearby

Air Quality

  Air Quality AQ Index Pollutant
Not available.

Snow Depth

Station Depth Elevation

Earthquake Activity

City Distance Mag. Time & Date
Minimum magnitude displayed is 2.5.

Coastal Water Temperatures

Place Temperature

Stations

Nearby Weather Stations

Station Location Temp. Windchill Dew Point Humidity Wind Precip. Elev Updated Type
                   

Watches & Warnings

There are currently no watches in effect.